Date,TemperatureHighF,TemperatureAvgF,TemperatureLowF,DewpointHighF,DewpointAvgF,DewpointLowF,HumidityHigh,HumidityAvg,HumidityLow,PressureMaxIn,PressureMinIn,WindSpeedMaxMPH,WindSpeedAvgMPH,GustSpeedMaxMPH,PrecipitationSumIn
2014-3-1,21.1,13.3,-0.7,18.9,9.8,-3.9,92,86,75,30.51,29.93,9,2,9,0.06
2014-3-2,37.5,17.3,-3.4,30.7,12.4,-7.3,92,81,59,30.71,30.50,14,1,17,0.10
2014-3-3,49.9,40.4,33.8,25.8,21.6,17.3,63,47,30,30.59,30.16,43,12,43,0.01
2014-3-4,52.3,40.9,28.4,30.6,22.3,17.0,92,49,26,30.27,30.00,27,8,35,0.00
2014-3-5,46.0,34.7,21.6,30.7,21.2,11.1,100,62,28,30.41,30.27,38,9,40,0.22
2014-3-6,54.4,46.8,39.2,22.0,14.9,11.7,42,28,20,30.36,29.94,39,13,41,0.00
2014-3-7,43.4,34.0,26.2,30.1,26.5,21.8,92,76,42,30.47,29.89,29,4,30,0.17
2014-3-8,46.5,33.4,22.6,34.0,24.5,13.9,95,71,40,30.69,30.47,11,2,14,0.43
2014-3-9,58.7,49.5,35.5,15.4,6.9,1.0,42,18,10,30.61,30.22,45,16,54,0.00
2014-3-10,64.6,51.9,44.2,19.7,9.8,4.0,27,18,10,30.25,29.71,52,15,60,0.00
2014-3-11,46.7,33.2,15.1,27.7,18.7,9.8,85,59,25,30.63,29.68,30,8,34,0.00
2014-3-12,49.2,29.0,11.4,21.9,10.9,4.2,80,52,21,30.79,30.56,14,3,18,0.03
2014-3-13,50.1,44.6,26.0,17.0,12.3,3.8,43,27,20,30.56,30.04,51,18,51,0.00
2014-3-14,55.6,41.2,25.7,22.4,12.8,1.0,58,34,12,30.23,30.10,31,8,33,0.00
2014-3-15,43.1,36.8,25.3,20.1,13.1,7.4,56,38,26,30.56,30.04,39,10,44,0.00
2014-3-16,53.3,38.9,22.3,17.7,13.4,7.9,66,37,21,30.61,30.23,41,15,41,0.00
2014-3-17,56.5,45.3,25.6,29.7,15.0,8.3,76,32,17,30.23,29.46,54,14,54,0.00
2014-3-18,36.8,27.7,21.7,19.2,11.2,5.7,70,50,35,30.45,29.52,54,13,63,0.00
2014-3-19,45.8,32.2,16.2,12.3,8.3,2.2,76,40,17,30.49,30.30,46,13,46,0.00
2014-3-20,54.0,43.6,34.8,10.1,4.2,-2.6,32,20,14,30.30,30.00,48,15,52,0.00
2014-3-21,43.1,33.8,23.0,20.2,15.2,3.1,80,50,19,30.40,30.03,32,7,36,0.00
2014-3-22,28.4,23.2,17.3,21.9,18.1,14.9,94,81,59,30.72,30.33,14,3,15,0.00
2014-3-23,48.7,33.9,14.0,20.3,13.4,8.8,92,48,21,30.71,30.34,43,11,49,0.12
2014-3-24,39.5,26.0,19.7,23.9,18.3,14.7,84,73,48,30.65,30.36,18,4,19,0.00
2014-3-25,59.3,37.3,20.1,25.8,18.7,11.1,89,55,18,30.67,30.03,35,5,38,0.00
2014-3-26,57.7,46.8,33.4,29.4,18.1,8.8,84,32,22,30.04,29.44,41,9,49,0.00
2014-3-27,47.1,37.7,30.0,28.4,19.5,11.2,85,50,25,30.10,29.49,37,12,42,0.00
2014-3-28,43.8,33.8,26.9,26.7,14.5,9.6,92,46,27,30.49,30.08,33,14,35,0.00
2014-3-29,58.0,44.8,35.9,17.6,12.2,6.6,37,27,18,30.47,30.07,40,14,48,0.00
2014-3-30,61.7,48.6,31.9,31.5,16.7,11.6,89,29,17,30.09,29.47,52,7,63,0.04
2014-3-31,45.7,38.5,28.8,24.2,14.3,8.6,67,39,25,30.27,29.47,59,15,74,0.00